sensor_id;sensor_type;location;lat;lon;timestamp;temperature;humidity
4002;DHT22;2015;48.670;9.060;2023-05-09T00:01:05;12.70;99.90
4002;DHT22;2015;48.670;9.060;2023-05-09T00:03:37;12.70;99.90
4002;DHT22;2015;48.670;9.060;2023-05-09T00:06:09;12.80;99.90
4002;DHT22;2015;48.670;9.060;2023-05-09T00:08:42;12.70;99.90
4002;DHT22;2015;48.670;9.060;2023-05-09T00:11:13;12.80;99.90
4002;DHT22;2015;48.670;9.060;2023-05-09T00:13:45;12.70;99.90
4002;DHT22;2015;48.670;9.060;2023-05-09T00:16:17;12.70;99.90
4002;DHT22;2015;48.670;9.060;2023-05-09T00:18:51;12.70;99.90
4002;DHT22;2015;48.670;9.060;2023-05-09T00:21:23;12.70;99.90
4002;DHT22;2015;48.670;9.060;2023-05-09T00:23:55;12.70;99.90
4002;DHT22;2015;48.670;9.060;2023-05-09T00:26:27;12.70;99.90
4002;DHT22;2015;48.670;9.060;2023-05-09T00:28:59;12.60;99.90
4002;DHT22;2015;48.670;9.060;2023-05-09T00:31:30;12.70;99.90
4002;DHT22;2015;48.670;9.060;2023-05-09T00:34:02;12.60;99.90
4002;DHT22;2015;48.670;9.060;2023-05-09T00:36:34;12.50;99.90
4002;DHT22;2015;48.670;9.060;2023-05-09T00:39:07;12.50;99.90
4002;DHT22;2015;48.670;9.060;2023-05-09T00:41:38;12.50;99.90
4002;DHT22;2015;48.670;9.060;2023-05-09T00:44:10;12.50;99.90
4002;DHT22;2015;48.670;9.060;2023-05-09T00:46:43;12.50;99.90
4002;DHT22;2015;48.670;9.060;2023-05-09T00:49:15;12.60;99.90
4002;DHT22;2015;48.670;9.060;2023-05-09T00:51:47;12.60;99.90
4002;DHT22;2015;48.670;9.060;2023-05-09T00:54:19;12.60;99.90
4002;DHT22;2015;48.670;9.060;2023-05-09T00:56:51;12.60;99.90
4002;DHT22;2015;48.670;9.060;2023-05-09T00:59:22;12.60;99.90
4002;DHT22;2015;48.670;9.060;2023-05-09T01:01:54;12.70;99.90
4002;DHT22;2015;48.670;9.060;2023-05-09T01:04:26;12.70;99.90
4002;DHT22;2015;48.670;9.060;2023-05-09T01:15:20;12.70;99.90
4002;DHT22;2015;48.670;9.060;2023-05-09T01:20:42;12.80;99.90
4002;DHT22;2015;48.670;9.060;2023-05-09T01:31:26;12.90;99.90
4002;DHT22;2015;48.670;9.060;2023-05-09T01:33:59;12.80;99.90
4002;DHT22;2015;48.670;9.060;2023-05-09T01:36:35;12.80;99.90
4002;DHT22;2015;48.670;9.060;2023-05-09T01:39:11;12.80;99.90
4002;DHT22;2015;48.670;9.060;2023-05-09T01:41:44;12.80;99.90
4002;DHT22;2015;48.670;9.060;2023-05-09T01:44:16;12.80;99.90
4002;DHT22;2015;48.670;9.060;2023-05-09T01:46:52;12.70;99.90
4002;DHT22;2015;48.670;9.060;2023-05-09T01:49:28;12.70;99.90
4002;DHT22;2015;48.670;9.060;2023-05-09T01:52:11;12.70;99.90
4002;DHT22;2015;48.670;9.060;2023-05-09T01:54:45;12.70;99.90
4002;DHT22;2015;48.670;9.060;2023-05-09T01:57:18;12.70;99.90
4002;DHT22;2015;48.670;9.060;2023-05-09T01:59:51;12.60;99.90
4002;DHT22;2015;48.670;9.060;2023-05-09T02:02:25;12.60;99.90
4002;DHT22;2015;48.670;9.060;2023-05-09T02:04:58;12.60;99.90
4002;DHT22;2015;48.670;9.060;2023-05-09T02:07:31;12.60;99.90
4002;DHT22;2015;48.670;9.060;2023-05-09T02:10:04;12.50;99.90
4002;DHT22;2015;48.670;9.060;2023-05-09T02:12:38;12.50;99.90
4002;DHT22;2015;48.670;9.060;2023-05-09T02:15:10;12.50;99.90
4002;DHT22;2015;48.670;9.060;2023-05-09T02:17:42;12.50;99.90
4002;DHT22;2015;48.670;9.060;2023-05-09T02:20:14;12.50;99.90
4002;DHT22;2015;48.670;9.060;2023-05-09T02:22:46;12.50;99.90
4002;DHT22;2015;48.670;9.060;2023-05-09T02:25:18;12.50;99.90
4002;DHT22;2015;48.670;9.060;2023-05-09T02:27:51;12.50;99.90
4002;DHT22;2015;48.670;9.060;2023-05-09T02:30:25;12.50;99.90
4002;DHT22;2015;48.670;9.060;2023-05-09T02:33:01;12.50;99.90
4002;DHT22;2015;48.670;9.060;2023-05-09T02:35:34;12.50;99.90
4002;DHT22;2015;48.670;9.060;2023-05-09T02:38:06;12.40;99.90
4002;DHT22;2015;48.670;9.060;2023-05-09T02:40:38;12.40;99.90
4002;DHT22;2015;48.670;9.060;2023-05-09T02:43:12;12.40;99.90
4002;DHT22;2015;48.670;9.060;2023-05-09T02:45:45;12.40;99.90
4002;DHT22;2015;48.670;9.060;2023-05-09T02:48:17;12.30;99.90
4002;DHT22;2015;48.670;9.060;2023-05-09T02:50:49;12.30;99.90
4002;DHT22;2015;48.670;9.060;2023-05-09T02:53:21;12.20;99.90
4002;DHT22;2015;48.670;9.060;2023-05-09T02:55:53;12.20;99.90
4002;DHT22;2015;48.670;9.060;2023-05-09T02:58:25;12.20;99.90
4002;DHT22;2015;48.670;9.060;2023-05-09T03:00:56;12.20;99.90
4002;DHT22;2015;48.670;9.060;2023-05-09T03:03:29;12.20;99.90
4002;DHT22;2015;48.670;9.060;2023-05-09T03:06:01;12.20;99.90
4002;DHT22;2015;48.670;9.060;2023-05-09T03:08:33;12.10;99.90
4002;DHT22;2015;48.670;9.060;2023-05-09T03:11:04;12.20;99.90
4002;DHT22;2015;48.670;9.060;2023-05-09T03:13:36;12.10;99.90
4002;DHT22;2015;48.670;9.060;2023-05-09T03:16:13;12.10;99.90
4002;DHT22;2015;48.670;9.060;2023-05-09T03:18:45;12.10;99.90
4002;DHT22;2015;48.670;9.060;2023-05-09T03:21:17;12.10;99.90
4002;DHT22;2015;48.670;9.060;2023-05-09T03:23:48;12.10;99.90
4002;DHT22;2015;48.670;9.060;2023-05-09T03:26:20;12.10;99.90
4002;DHT22;2015;48.670;9.060;2023-05-09T03:28:52;12.00;99.90
4002;DHT22;2015;48.670;9.060;2023-05-09T03:31:24;12.00;99.90
4002;DHT22;2015;48.670;9.060;2023-05-09T03:33:56;12.00;99.90
4002;DHT22;2015;48.670;9.060;2023-05-09T03:36:28;12.00;99.90
4002;DHT22;2015;48.670;9.060;2023-05-09T03:38:59;12.00;99.90
4002;DHT22;2015;48.670;9.060;2023-05-09T03:41:31;12.00;99.90
4002;DHT22;2015;48.670;9.060;2023-05-09T03:44:04;12.00;99.90
4002;DHT22;2015;48.670;9.060;2023-05-09T03:46:35;12.00;99.90
4002;DHT22;2015;48.670;9.060;2023-05-09T03:49:07;12.00;99.90
4002;DHT22;2015;48.670;9.060;2023-05-09T03:51:39;11.90;99.90
4002;DHT22;2015;48.670;9.060;2023-05-09T03:54:12;11.90;99.90
4002;DHT22;2015;48.670;9.060;2023-05-09T03:56:44;11.90;99.90
4002;DHT22;2015;48.670;9.060;2023-05-09T03:59:16;11.80;99.90
4002;DHT22;2015;48.670;9.060;2023-05-09T04:01:47;11.80;99.90
4002;DHT22;2015;48.670;9.060;2023-05-09T04:04:19;11.70;99.90
4002;DHT22;2015;48.670;9.060;2023-05-09T04:06:51;11.70;99.90
4002;DHT22;2015;48.670;9.060;2023-05-09T04:09:23;11.70;99.90
4002;DHT22;2015;48.670;9.060;2023-05-09T04:11:55;11.70;99.90
4002;DHT22;2015;48.670;9.060;2023-05-09T04:14:27;11.70;99.90
4002;DHT22;2015;48.670;9.060;2023-05-09T04:16:58;11.70;99.90
4002;DHT22;2015;48.670;9.060;2023-05-09T04:19:30;11.70;99.90
4002;DHT22;2015;48.670;9.060;2023-05-09T04:22:02;11.70;99.90
4002;DHT22;2015;48.670;9.060;2023-05-09T04:24:34;11.70;99.90
4002;DHT22;2015;48.670;9.060;2023-05-09T04:27:06;11.70;99.90
4002;DHT22;2015;48.670;9.060;2023-05-09T04:29:38;11.70;99.90
4002;DHT22;2015;48.670;9.060;2023-05-09T04:32:10;11.80;99.90
4002;DHT22;2015;48.670;9.060;2023-05-09T04:34:42;11.80;99.90
4002;DHT22;2015;48.670;9.060;2023-05-09T04:37:14;11.90;99.90
4002;DHT22;2015;48.670;9.060;2023-05-09T04:39:46;12.00;99.90
4002;DHT22;2015;48.670;9.060;2023-05-09T04:42:17;12.00;99.90
4002;DHT22;2015;48.670;9.060;2023-05-09T04:44:49;12.10;99.90
4002;DHT22;2015;48.670;9.060;2023-05-09T04:47:22;12.10;99.90
4002;DHT22;2015;48.670;9.060;2023-05-09T04:49:53;12.20;99.90
4002;DHT22;2015;48.670;9.060;2023-05-09T04:52:25;12.30;99.90
4002;DHT22;2015;48.670;9.060;2023-05-09T04:54:57;12.40;99.90
4002;DHT22;2015;48.670;9.060;2023-05-09T04:57:29;12.50;99.90
4002;DHT22;2015;48.670;9.060;2023-05-09T05:00:00;12.60;99.90
4002;DHT22;2015;48.670;9.060;2023-05-09T05:02:32;12.70;99.90
4002;DHT22;2015;48.670;9.060;2023-05-09T05:05:04;12.80;99.90
4002;DHT22;2015;48.670;9.060;2023-05-09T05:07:43;12.90;99.90
4002;DHT22;2015;48.670;9.060;2023-05-09T05:10:14;13.00;99.90
4002;DHT22;2015;48.670;9.060;2023-05-09T05:12:46;13.10;99.90
4002;DHT22;2015;48.670;9.060;2023-05-09T05:15:18;13.20;99.90
4002;DHT22;2015;48.670;9.060;2023-05-09T05:17:50;13.30;99.90
4002;DHT22;2015;48.670;9.060;2023-05-09T05:20:22;13.30;99.90
4002;DHT22;2015;48.670;9.060;2023-05-09T05:22:53;13.40;99.90
4002;DHT22;2015;48.670;9.060;2023-05-09T05:25:25;13.40;99.90
4002;DHT22;2015;48.670;9.060;2023-05-09T05:27:57;13.40;99.90
4002;DHT22;2015;48.670;9.060;2023-05-09T05:30:29;13.40;99.90
4002;DHT22;2015;48.670;9.060;2023-05-09T05:33:04;13.50;99.90
4002;DHT22;2015;48.670;9.060;2023-05-09T05:35:36;13.60;99.90
4002;DHT22;2015;48.670;9.060;2023-05-09T05:38:08;13.60;99.90
4002;DHT22;2015;48.670;9.060;2023-05-09T05:40:39;13.50;99.90
4002;DHT22;2015;48.670;9.060;2023-05-09T05:43:11;13.50;99.90
4002;DHT22;2015;48.670;9.060;2023-05-09T05:45:43;13.60;99.90
4002;DHT22;2015;48.670;9.060;2023-05-09T05:48:15;13.70;99.90
4002;DHT22;2015;48.670;9.060;2023-05-09T05:50:46;13.80;99.90
4002;DHT22;2015;48.670;9.060;2023-05-09T05:53:18;13.80;99.90
4002;DHT22;2015;48.670;9.060;2023-05-09T05:55:50;13.90;99.90
4002;DHT22;2015;48.670;9.060;2023-05-09T05:58:22;14.00;99.90
4002;DHT22;2015;48.670;9.060;2023-05-09T06:00:55;14.20;99.90
4002;DHT22;2015;48.670;9.060;2023-05-09T06:03:26;14.30;99.90
4002;DHT22;2015;48.670;9.060;2023-05-09T06:05:58;14.50;99.90
4002;DHT22;2015;48.670;9.060;2023-05-09T06:08:30;14.50;99.90
4002;DHT22;2015;48.670;9.060;2023-05-09T06:11:02;14.60;99.90
4002;DHT22;2015;48.670;9.060;2023-05-09T06:13:34;14.60;99.90
4002;DHT22;2015;48.670;9.060;2023-05-09T06:16:06;14.60;99.90
4002;DHT22;2015;48.670;9.060;2023-05-09T06:18:50;14.60;99.90
4002;DHT22;2015;48.670;9.060;2023-05-09T06:21:26;14.70;99.90
4002;DHT22;2015;48.670;9.060;2023-05-09T06:23:58;14.80;99.90
4002;DHT22;2015;48.670;9.060;2023-05-09T06:26:42;14.80;99.90
4002;DHT22;2015;48.670;9.060;2023-05-09T06:29:14;14.80;99.90
4002;DHT22;2015;48.670;9.060;2023-05-09T06:31:46;14.80;99.90
4002;DHT22;2015;48.670;9.060;2023-05-09T06:34:18;14.70;99.90
4002;DHT22;2015;48.670;9.060;2023-05-09T06:36:49;14.70;99.90
4002;DHT22;2015;48.670;9.060;2023-05-09T06:39:21;14.80;99.90
4002;DHT22;2015;48.670;9.060;2023-05-09T06:41:53;14.80;99.90
4002;DHT22;2015;48.670;9.060;2023-05-09T06:44:25;14.90;99.90
4002;DHT22;2015;48.670;9.060;2023-05-09T06:46:57;14.90;99.90
4002;DHT22;2015;48.670;9.060;2023-05-09T06:49:29;15.10;99.90
4002;DHT22;2015;48.670;9.060;2023-05-09T06:52:00;15.20;99.90
4002;DHT22;2015;48.670;9.060;2023-05-09T06:54:32;15.30;99.90
4002;DHT22;2015;48.670;9.060;2023-05-09T06:57:04;15.50;99.90
4002;DHT22;2015;48.670;9.060;2023-05-09T06:59:36;15.80;99.90
4002;DHT22;2015;48.670;9.060;2023-05-09T07:02:07;16.00;99.90
4002;DHT22;2015;48.670;9.060;2023-05-09T07:04:39;16.20;99.90
4002;DHT22;2015;48.670;9.060;2023-05-09T07:07:11;16.40;99.90
4002;DHT22;2015;48.670;9.060;2023-05-09T07:09:43;16.60;99.90
4002;DHT22;2015;48.670;9.060;2023-05-09T07:12:14;16.50;99.90
4002;DHT22;2015;48.670;9.060;2023-05-09T07:14:46;16.40;99.90
4002;DHT22;2015;48.670;9.060;2023-05-09T07:17:18;16.50;99.90
4002;DHT22;2015;48.670;9.060;2023-05-09T07:19:54;16.50;99.90
4002;DHT22;2015;48.670;9.060;2023-05-09T07:22:26;16.50;99.90
4002;DHT22;2015;48.670;9.060;2023-05-09T07:25:01;16.60;99.90
4002;DHT22;2015;48.670;9.060;2023-05-09T07:27:34;16.60;99.90
4002;DHT22;2015;48.670;9.060;2023-05-09T07:30:07;16.60;99.90
4002;DHT22;2015;48.670;9.060;2023-05-09T07:32:39;16.60;99.90
4002;DHT22;2015;48.670;9.060;2023-05-09T07:35:11;16.60;99.90
4002;DHT22;2015;48.670;9.060;2023-05-09T07:37:43;16.70;99.90
4002;DHT22;2015;48.670;9.060;2023-05-09T07:40:15;16.70;99.90
4002;DHT22;2015;48.670;9.060;2023-05-09T07:42:47;16.80;99.90
4002;DHT22;2015;48.670;9.060;2023-05-09T07:45:20;17.00;99.90
4002;DHT22;2015;48.670;9.060;2023-05-09T07:47:54;17.10;99.90
4002;DHT22;2015;48.670;9.060;2023-05-09T07:50:26;17.30;99.90
4002;DHT22;2015;48.670;9.060;2023-05-09T07:52:58;17.40;99.90
4002;DHT22;2015;48.670;9.060;2023-05-09T07:55:30;17.50;99.90
4002;DHT22;2015;48.670;9.060;2023-05-09T07:58:02;17.50;99.90
4002;DHT22;2015;48.670;9.060;2023-05-09T08:00:33;17.80;99.90
4002;DHT22;2015;48.670;9.060;2023-05-09T08:03:05;17.90;99.90
4002;DHT22;2015;48.670;9.060;2023-05-09T08:05:37;18.10;99.90
4002;DHT22;2015;48.670;9.060;2023-05-09T08:08:09;18.10;99.90
4002;DHT22;2015;48.670;9.060;2023-05-09T08:10:41;18.10;99.90
4002;DHT22;2015;48.670;9.060;2023-05-09T08:13:14;18.20;99.90
4002;DHT22;2015;48.670;9.060;2023-05-09T08:15:45;18.20;99.90
4002;DHT22;2015;48.670;9.060;2023-05-09T08:18:17;18.40;99.90
4002;DHT22;2015;48.670;9.060;2023-05-09T08:20:49;18.40;99.90
4002;DHT22;2015;48.670;9.060;2023-05-09T08:23:21;18.60;99.90
4002;DHT22;2015;48.670;9.060;2023-05-09T08:25:53;18.50;99.90
4002;DHT22;2015;48.670;9.060;2023-05-09T08:28:25;18.20;99.90
4002;DHT22;2015;48.670;9.060;2023-05-09T08:30:59;18.00;99.90
4002;DHT22;2015;48.670;9.060;2023-05-09T08:33:31;17.90;99.90
4002;DHT22;2015;48.670;9.060;2023-05-09T08:36:03;17.60;99.90
4002;DHT22;2015;48.670;9.060;2023-05-09T08:38:35;17.60;99.90
4002;DHT22;2015;48.670;9.060;2023-05-09T08:41:07;17.40;99.90
4002;DHT22;2015;48.670;9.060;2023-05-09T08:43:39;17.20;99.90
4002;DHT22;2015;48.670;9.060;2023-05-09T08:46:12;17.10;99.90
4002;DHT22;2015;48.670;9.060;2023-05-09T08:48:44;17.00;99.90
4002;DHT22;2015;48.670;9.060;2023-05-09T08:51:16;16.90;99.90
4002;DHT22;2015;48.670;9.060;2023-05-09T08:53:49;16.90;99.90
4002;DHT22;2015;48.670;9.060;2023-05-09T08:56:21;17.00;99.90
4002;DHT22;2015;48.670;9.060;2023-05-09T08:58:54;17.10;99.90
4002;DHT22;2015;48.670;9.060;2023-05-09T09:01:26;17.10;99.90
4002;DHT22;2015;48.670;9.060;2023-05-09T09:04:00;17.10;99.90
4002;DHT22;2015;48.670;9.060;2023-05-09T09:06:33;17.20;99.90
4002;DHT22;2015;48.670;9.060;2023-05-09T09:09:08;17.20;99.90
4002;DHT22;2015;48.670;9.060;2023-05-09T09:11:42;17.20;99.90
4002;DHT22;2015;48.670;9.060;2023-05-09T09:14:22;17.20;99.90
4002;DHT22;2015;48.670;9.060;2023-05-09T09:16:56;17.30;99.90
4002;DHT22;2015;48.670;9.060;2023-05-09T09:19:29;17.50;99.90
4002;DHT22;2015;48.670;9.060;2023-05-09T09:22:03;17.70;99.90
4002;DHT22;2015;48.670;9.060;2023-05-09T09:24:35;18.10;99.90
4002;DHT22;2015;48.670;9.060;2023-05-09T09:27:07;18.90;99.90
4002;DHT22;2015;48.670;9.060;2023-05-09T09:29:39;19.90;99.90
4002;DHT22;2015;48.670;9.060;2023-05-09T09:32:10;19.90;99.90
4002;DHT22;2015;48.670;9.060;2023-05-09T09:34:42;19.80;99.90
4002;DHT22;2015;48.670;9.060;2023-05-09T09:37:21;19.80;99.90
4002;DHT22;2015;48.670;9.060;2023-05-09T09:39:54;20.20;99.90
4002;DHT22;2015;48.670;9.060;2023-05-09T09:42:26;20.20;99.90
4002;DHT22;2015;48.670;9.060;2023-05-09T09:45:12;19.90;99.90
4002;DHT22;2015;48.670;9.060;2023-05-09T09:47:46;19.60;99.90
4002;DHT22;2015;48.670;9.060;2023-05-09T09:50:19;19.60;99.90
4002;DHT22;2015;48.670;9.060;2023-05-09T09:52:55;19.60;99.90
4002;DHT22;2015;48.670;9.060;2023-05-09T09:55:28;19.50;99.90
4002;DHT22;2015;48.670;9.060;2023-05-09T09:57:59;19.40;99.90
4002;DHT22;2015;48.670;9.060;2023-05-09T10:00:31;19.20;99.90
4002;DHT22;2015;48.670;9.060;2023-05-09T10:03:03;19.30;99.90
4002;DHT22;2015;48.670;9.060;2023-05-09T10:05:35;19.70;99.90
4002;DHT22;2015;48.670;9.060;2023-05-09T10:08:09;20.50;99.90
4002;DHT22;2015;48.670;9.060;2023-05-09T10:10:41;21.30;99.90
4002;DHT22;2015;48.670;9.060;2023-05-09T10:13:13;21.50;99.90
4002;DHT22;2015;48.670;9.060;2023-05-09T10:15:45;22.00;99.90
4002;DHT22;2015;48.670;9.060;2023-05-09T10:18:27;22.60;99.90
4002;DHT22;2015;48.670;9.060;2023-05-09T10:21:01;22.70;99.90
4002;DHT22;2015;48.670;9.060;2023-05-09T10:23:36;22.30;99.90
4002;DHT22;2015;48.670;9.060;2023-05-09T10:26:17;22.70;99.90
4002;DHT22;2015;48.670;9.060;2023-05-09T10:28:54;23.50;99.90
4002;DHT22;2015;48.670;9.060;2023-05-09T10:31:28;24.00;99.90
4002;DHT22;2015;48.670;9.060;2023-05-09T10:34:06;24.10;99.90
4002;DHT22;2015;48.670;9.060;2023-05-09T10:36:39;24.20;99.90
4002;DHT22;2015;48.670;9.060;2023-05-09T10:39:10;24.50;99.90
4002;DHT22;2015;48.670;9.060;2023-05-09T10:41:43;25.10;99.90
4002;DHT22;2015;48.670;9.060;2023-05-09T10:44:15;25.40;99.90
4002;DHT22;2015;48.670;9.060;2023-05-09T10:46:47;25.20;99.90
4002;DHT22;2015;48.670;9.060;2023-05-09T10:49:19;24.80;99.90
4002;DHT22;2015;48.670;9.060;2023-05-09T10:51:51;24.30;99.90
4002;DHT22;2015;48.670;9.060;2023-05-09T10:54:27;24.40;99.90
4002;DHT22;2015;48.670;9.060;2023-05-09T10:57:01;24.70;99.90
4002;DHT22;2015;48.670;9.060;2023-05-09T10:59:36;24.90;99.90
4002;DHT22;2015;48.670;9.060;2023-05-09T11:02:13;25.00;99.90
4002;DHT22;2015;48.670;9.060;2023-05-09T11:04:46;24.50;99.90
4002;DHT22;2015;48.670;9.060;2023-05-09T11:07:23;23.60;99.90
4002;DHT22;2015;48.670;9.060;2023-05-09T11:12:57;22.50;99.90
4002;DHT22;2015;48.670;9.060;2023-05-09T11:15:29;22.80;99.90
4002;DHT22;2015;48.670;9.060;2023-05-09T11:18:06;23.50;99.90
4002;DHT22;2015;48.670;9.060;2023-05-09T11:20:43;23.60;99.90
4002;DHT22;2015;48.670;9.060;2023-05-09T11:23:16;23.70;99.90
4002;DHT22;2015;48.670;9.060;2023-05-09T11:25:49;23.50;99.90
4002;DHT22;2015;48.670;9.060;2023-05-09T11:28:29;23.00;99.90
4002;DHT22;2015;48.670;9.060;2023-05-09T11:31:16;22.70;99.90
4002;DHT22;2015;48.670;9.060;2023-05-09T11:33:49;22.40;99.90
4002;DHT22;2015;48.670;9.060;2023-05-09T11:36:29;22.30;99.90
4002;DHT22;2015;48.670;9.060;2023-05-09T11:39:08;22.30;99.90
4002;DHT22;2015;48.670;9.060;2023-05-09T11:41:42;22.00;99.90
4002;DHT22;2015;48.670;9.060;2023-05-09T11:44:16;22.30;99.90
4002;DHT22;2015;48.670;9.060;2023-05-09T11:46:48;22.10;99.90
4002;DHT22;2015;48.670;9.060;2023-05-09T11:49:21;22.10;99.90
4002;DHT22;2015;48.670;9.060;2023-05-09T11:51:53;22.20;99.90
4002;DHT22;2015;48.670;9.060;2023-05-09T11:54:24;22.10;99.90
4002;DHT22;2015;48.670;9.060;2023-05-09T11:56:57;22.20;99.90
4002;DHT22;2015;48.670;9.060;2023-05-09T11:59:32;22.10;99.90
4002;DHT22;2015;48.670;9.060;2023-05-09T12:02:07;21.90;99.90
4002;DHT22;2015;48.670;9.060;2023-05-09T12:04:39;21.90;99.90
4002;DHT22;2015;48.670;9.060;2023-05-09T12:07:11;22.00;99.90
4002;DHT22;2015;48.670;9.060;2023-05-09T12:09:43;22.20;99.90
4002;DHT22;2015;48.670;9.060;2023-05-09T12:12:15;22.00;99.90
4002;DHT22;2015;48.670;9.060;2023-05-09T12:14:51;22.00;99.90
4002;DHT22;2015;48.670;9.060;2023-05-09T12:17:23;22.00;99.90
4002;DHT22;2015;48.670;9.060;2023-05-09T12:20:00;21.80;99.90
4002;DHT22;2015;48.670;9.060;2023-05-09T12:22:33;21.70;99.90
4002;DHT22;2015;48.670;9.060;2023-05-09T12:25:07;21.90;99.90
4002;DHT22;2015;48.670;9.060;2023-05-09T12:27:40;21.80;99.90
4002;DHT22;2015;48.670;9.060;2023-05-09T12:30:12;21.60;99.90
4002;DHT22;2015;48.670;9.060;2023-05-09T12:32:46;21.50;99.90
4002;DHT22;2015;48.670;9.060;2023-05-09T12:35:20;21.30;99.90
4002;DHT22;2015;48.670;9.060;2023-05-09T12:38:00;21.10;99.90
4002;DHT22;2015;48.670;9.060;2023-05-09T12:40:32;20.90;99.90
4002;DHT22;2015;48.670;9.060;2023-05-09T12:43:04;20.80;99.90
4002;DHT22;2015;48.670;9.060;2023-05-09T12:45:37;20.70;99.90
4002;DHT22;2015;48.670;9.060;2023-05-09T12:48:09;20.50;99.90
4002;DHT22;2015;48.670;9.060;2023-05-09T12:50:45;20.50;99.90
4002;DHT22;2015;48.670;9.060;2023-05-09T12:53:25;20.50;99.90
4002;DHT22;2015;48.670;9.060;2023-05-09T12:56:01;20.70;99.90
4002;DHT22;2015;48.670;9.060;2023-05-09T12:58:34;21.00;99.90
4002;DHT22;2015;48.670;9.060;2023-05-09T13:01:06;21.10;99.90
4002;DHT22;2015;48.670;9.060;2023-05-09T13:03:37;21.30;99.90
4002;DHT22;2015;48.670;9.060;2023-05-09T13:06:13;21.40;99.90
4002;DHT22;2015;48.670;9.060;2023-05-09T13:08:56;21.50;99.90
4002;DHT22;2015;48.670;9.060;2023-05-09T13:11:29;21.60;99.90
4002;DHT22;2015;48.670;9.060;2023-05-09T13:14:02;21.60;99.90
4002;DHT22;2015;48.670;9.060;2023-05-09T13:16:34;21.60;99.90
4002;DHT22;2015;48.670;9.060;2023-05-09T13:19:07;21.30;99.90
4002;DHT22;2015;48.670;9.060;2023-05-09T13:21:38;21.10;99.90
4002;DHT22;2015;48.670;9.060;2023-05-09T13:24:10;21.10;99.90
4002;DHT22;2015;48.670;9.060;2023-05-09T13:26:42;20.90;99.90
4002;DHT22;2015;48.670;9.060;2023-05-09T13:29:13;20.70;99.90
4002;DHT22;2015;48.670;9.060;2023-05-09T13:31:45;20.50;99.90
4002;DHT22;2015;48.670;9.060;2023-05-09T13:34:17;20.40;99.90
4002;DHT22;2015;48.670;9.060;2023-05-09T13:36:49;20.30;99.90
4002;DHT22;2015;48.670;9.060;2023-05-09T13:39:20;20.30;99.90
4002;DHT22;2015;48.670;9.060;2023-05-09T13:41:52;20.10;99.90
4002;DHT22;2015;48.670;9.060;2023-05-09T13:44:24;20.00;99.90
4002;DHT22;2015;48.670;9.060;2023-05-09T13:46:56;20.00;99.90
4002;DHT22;2015;48.670;9.060;2023-05-09T13:49:29;20.00;99.90
4002;DHT22;2015;48.670;9.060;2023-05-09T13:52:00;20.00;99.90
4002;DHT22;2015;48.670;9.060;2023-05-09T13:54:32;20.10;99.90
4002;DHT22;2015;48.670;9.060;2023-05-09T13:57:07;20.10;99.90
4002;DHT22;2015;48.670;9.060;2023-05-09T13:59:39;20.00;99.90
4002;DHT22;2015;48.670;9.060;2023-05-09T14:02:13;20.00;99.90
4002;DHT22;2015;48.670;9.060;2023-05-09T14:04:45;20.10;99.90
4002;DHT22;2015;48.670;9.060;2023-05-09T14:07:18;20.10;99.90
4002;DHT22;2015;48.670;9.060;2023-05-09T14:09:50;20.20;99.90
4002;DHT22;2015;48.670;9.060;2023-05-09T14:12:39;20.20;99.90
4002;DHT22;2015;48.670;9.060;2023-05-09T14:15:11;20.30;99.90
4002;DHT22;2015;48.670;9.060;2023-05-09T14:17:43;20.30;99.90
4002;DHT22;2015;48.670;9.060;2023-05-09T14:20:15;20.30;99.90
4002;DHT22;2015;48.670;9.060;2023-05-09T14:22:47;20.50;99.90
4002;DHT22;2015;48.670;9.060;2023-05-09T14:25:19;20.50;99.90
4002;DHT22;2015;48.670;9.060;2023-05-09T14:27:52;20.50;99.90
4002;DHT22;2015;48.670;9.060;2023-05-09T14:30:24;20.50;99.90
4002;DHT22;2015;48.670;9.060;2023-05-09T14:32:57;20.50;99.90
4002;DHT22;2015;48.670;9.060;2023-05-09T14:35:28;20.60;99.90
4002;DHT22;2015;48.670;9.060;2023-05-09T14:38:03;20.60;99.90
4002;DHT22;2015;48.670;9.060;2023-05-09T14:40:35;20.40;99.90
4002;DHT22;2015;48.670;9.060;2023-05-09T14:43:06;20.30;99.90
4002;DHT22;2015;48.670;9.060;2023-05-09T14:45:39;20.20;99.90
4002;DHT22;2015;48.670;9.060;2023-05-09T14:48:11;20.10;99.90
4002;DHT22;2015;48.670;9.060;2023-05-09T14:50:46;20.00;99.90
4002;DHT22;2015;48.670;9.060;2023-05-09T14:53:19;20.00;99.90
4002;DHT22;2015;48.670;9.060;2023-05-09T14:55:53;20.00;99.90
4002;DHT22;2015;48.670;9.060;2023-05-09T14:58:25;20.10;99.90
4002;DHT22;2015;48.670;9.060;2023-05-09T15:00:56;20.20;99.90
4002;DHT22;2015;48.670;9.060;2023-05-09T15:03:28;20.30;99.90
4002;DHT22;2015;48.670;9.060;2023-05-09T15:06:01;20.30;99.90
4002;DHT22;2015;48.670;9.060;2023-05-09T15:08:33;20.30;99.90
4002;DHT22;2015;48.670;9.060;2023-05-09T15:11:06;20.40;99.90
4002;DHT22;2015;48.670;9.060;2023-05-09T15:13:38;20.60;99.90
4002;DHT22;2015;48.670;9.060;2023-05-09T15:16:10;20.50;99.90
4002;DHT22;2015;48.670;9.060;2023-05-09T15:18:42;20.60;99.90
4002;DHT22;2015;48.670;9.060;2023-05-09T15:21:16;20.50;99.90
4002;DHT22;2015;48.670;9.060;2023-05-09T15:23:47;20.30;99.90
4002;DHT22;2015;48.670;9.060;2023-05-09T15:26:19;20.30;99.90
4002;DHT22;2015;48.670;9.060;2023-05-09T15:28:51;20.20;99.90
4002;DHT22;2015;48.670;9.060;2023-05-09T15:31:23;19.90;99.90
4002;DHT22;2015;48.670;9.060;2023-05-09T15:33:56;19.90;99.90
4002;DHT22;2015;48.670;9.060;2023-05-09T15:36:27;19.90;99.90
4002;DHT22;2015;48.670;9.060;2023-05-09T15:39:04;19.90;99.90
4002;DHT22;2015;48.670;9.060;2023-05-09T15:41:36;19.90;99.90
4002;DHT22;2015;48.670;9.060;2023-05-09T15:44:08;19.90;99.90
4002;DHT22;2015;48.670;9.060;2023-05-09T15:46:39;20.00;99.90
4002;DHT22;2015;48.670;9.060;2023-05-09T15:49:11;20.00;99.90
4002;DHT22;2015;48.670;9.060;2023-05-09T15:51:43;19.80;99.90
4002;DHT22;2015;48.670;9.060;2023-05-09T15:54:16;19.70;99.90
4002;DHT22;2015;48.670;9.060;2023-05-09T15:56:47;19.70;99.90
4002;DHT22;2015;48.670;9.060;2023-05-09T15:59:19;19.60;99.90
4002;DHT22;2015;48.670;9.060;2023-05-09T16:01:51;19.60;99.90
4002;DHT22;2015;48.670;9.060;2023-05-09T16:04:23;19.60;99.90
4002;DHT22;2015;48.670;9.060;2023-05-09T16:06:55;19.50;99.90
4002;DHT22;2015;48.670;9.060;2023-05-09T16:09:27;19.40;99.90
4002;DHT22;2015;48.670;9.060;2023-05-09T16:11:59;19.40;99.90
4002;DHT22;2015;48.670;9.060;2023-05-09T16:14:30;19.40;99.90
4002;DHT22;2015;48.670;9.060;2023-05-09T16:17:02;19.40;99.90
4002;DHT22;2015;48.670;9.060;2023-05-09T16:19:35;19.30;99.90
4002;DHT22;2015;48.670;9.060;2023-05-09T16:22:07;19.30;99.90
4002;DHT22;2015;48.670;9.060;2023-05-09T16:24:39;19.30;99.90
4002;DHT22;2015;48.670;9.060;2023-05-09T16:27:11;19.30;99.90
4002;DHT22;2015;48.670;9.060;2023-05-09T16:29:45;19.30;99.90
4002;DHT22;2015;48.670;9.060;2023-05-09T16:32:16;19.20;99.90
4002;DHT22;2015;48.670;9.060;2023-05-09T16:34:48;19.20;99.90
4002;DHT22;2015;48.670;9.060;2023-05-09T16:37:20;19.10;99.90
4002;DHT22;2015;48.670;9.060;2023-05-09T16:39:51;19.10;99.90
4002;DHT22;2015;48.670;9.060;2023-05-09T16:42:23;19.10;99.90
4002;DHT22;2015;48.670;9.060;2023-05-09T16:44:56;19.10;99.90
4002;DHT22;2015;48.670;9.060;2023-05-09T16:47:28;19.00;99.90
4002;DHT22;2015;48.670;9.060;2023-05-09T16:49:59;19.00;99.90
4002;DHT22;2015;48.670;9.060;2023-05-09T16:52:31;19.00;99.90
4002;DHT22;2015;48.670;9.060;2023-05-09T16:55:03;18.90;99.90
4002;DHT22;2015;48.670;9.060;2023-05-09T16:57:36;18.80;99.90
4002;DHT22;2015;48.670;9.060;2023-05-09T17:00:08;18.70;99.90